KTDO/TDO METAR and TAF weather

Enter ICAO airport designator
Station Type Date Time Source
KTDO METAR 2007/10/01 03:47 UTC NOAA

KTDO 010347Z 14005KT 7SM OVC12 10/06 A2984 RMK SLP105 LAST


Station Type Date Time Source
KTDO Decoded METAR 2007/10/01 03:47 UTC NOAA

Error!

Station Type Date Time Source
KTDO TAF UTC NOAA

Error!


Example: see airport list